Bootsie B, — WDF9484 — position and weather

sailwx.info

Track history (hours):
 
Tides and Currents Weather Stations Pressure Air Temp Water Temp Dewpoint Dewpoint Depression Visibility Wind Speed Wind Dir Waves Ship Positions

Bootsie B,

Owner: Marquette Transp[ortation Co. LLC, Paducah, KY. More information available from US FCC via Universal Licensing System and Coast Guard Vessel Documentation Center.

Last reported at 2016-Dec-01 00:31 UTC. Time now 2016-Dec-03 02:26 UTC.
Position N 32°03' W 091°03'.

Type: Towing. MMSI: 367505630.

Date/timePositionNaut miles runAvg speedWind from/ knotsBaromVisibWave heightAir tempDewpointWater temp
2016-Dec-01 00:31N 32°03' W 091°03'5 5.4
2016-Nov-30 23:33N 32°08' W 091°06'7 6.6
2016-Nov-30 22:33N 32°12' W 090°60'9 8.6
2016-Nov-30 21:33N 32°19' W 090°54'5 5.3
2016-Nov-30 20:33N 32°21' W 090°60'7 7.2
2016-Nov-30 19:33N 32°27' W 091°05'8 8.0
2016-Nov-30 18:33N 32°35' W 091°07'  
2016-Nov-23 11:07N 32°40' W 091°08'3 5.7
2016-Nov-23 10:33N 32°37' W 091°09'6 5.9
2016-Nov-23 09:32N 32°31' W 091°06'6 5.9
2016-Nov-23 08:33N 32°26' W 091°03'5 5.3
2016-Nov-23 07:33N 32°22' W 091°00'5 5.5
2016-Nov-23 06:33N 32°19' W 090°54'15 4.4
2016-Nov-23 03:10N 32°08' W 091°06'137 3.5
2016-Nov-21 12:33N 29°58' W 090°17'2 1.1
2016-Nov-21 10:33N 29°58' W 090°15'  
Track history (hours):
 
Tides and Currents Weather Stations Pressure Air Temp Water Temp Dewpoint Dewpoint Depression Visibility Wind Speed Wind Dir Waves Ship Positions

Bootsie B,

Owner: Marquette Transp[ortation Co. LLC, Paducah, KY. More information available from US FCC via Universal Licensing System and Coast Guard Vessel Documentation Center.

Last reported at 2016-Dec-01 00:31 UTC. Time now 2016-Dec-03 02:26 UTC.
Position N 32°03' W 091°03'.

Type: Towing. MMSI: 367505630.

Date/timePositionNaut miles runAvg speedWind from/ knotsBaromVisibWave heightAir tempDewpointWater temp
2016-Dec-01 00:31N 32°03' W 091°03'5 5.4
2016-Nov-30 23:33N 32°08' W 091°06'7 6.6
2016-Nov-30 22:33N 32°12' W 090°60'9 8.6
2016-Nov-30 21:33N 32°19' W 090°54'5 5.3
2016-Nov-30 20:33N 32°21' W 090°60'7 7.2
2016-Nov-30 19:33N 32°27' W 091°05'8 8.0
2016-Nov-30 18:33N 32°35' W 091°07'  
2016-Nov-23 11:07N 32°40' W 091°08'3 5.7
2016-Nov-23 10:33N 32°37' W 091°09'6 5.9
2016-Nov-23 09:32N 32°31' W 091°06'6 5.9
2016-Nov-23 08:33N 32°26' W 091°03'5 5.3
2016-Nov-23 07:33N 32°22' W 091°00'5 5.5
2016-Nov-23 06:33N 32°19' W 090°54'15 4.4
2016-Nov-23 03:10N 32°08' W 091°06'137 3.5
2016-Nov-21 12:33N 29°58' W 090°17'2 1.1
2016-Nov-21 10:33N 29°58' W 090°15'  

Dump ship's entire track history